Toa Baja, PR (00951)

3:20 AM AST on August 05, 2015 (GMT -0400)
Manejo de Emergencias | | Change Station
CLOSE
Current Station
Personal Weather Station
Location: Dorado, PR
Elevation: 50 ft
Nearby Weather Stations

Elev 50 ft 18.47 °N, 66.29 °W | Updated 4 minutes ago

Light Rain
Light Rain
79.1 °F
Feels Like 83 °F
N
0.0
Wind Variable Wind from SE
Gusts 7.0 mph

Today
High -- | Low -- °F
--% Chance of Precip.
Yesterday
High -- | Low -- °F
Precip. -- in
6:03 AM 6:57 PM
Waning Gibbous, 70% visible
Pressure 30.04 in
Visibility 9.0 miles
Clouds Few 2500 ft
Scattered Clouds 3500 ft
Scattered Clouds 4200 ft
Heat Index 83 °F
Dew Point 75 °F
Humidity 88%
Rainfall 0.00 in
Snow Depth Not available.
UV 0 out of 12
Pollen Not available.
Air Quality Not available.
Flu Activity Not available.
METAR TJSJ 050656Z 10005KT 9SM -RA FEW025 SCT035 SCT042 26/25 A3004 RMK AO2 RAB41 SLP170 P0011 T02610250

More Conditions Fewer Conditions

Pressure 30.04 in
Visibility 9.0 miles
Clouds Few 2500 ft
Scattered Clouds 3500 ft
Scattered Clouds 4200 ft
Heat Index 83 °F
Dew Point 75 °F
Humidity 88%
Rainfall 0.00 in
Snow Depth Not available.
UV 0 out of 12
Pollen Not available.
Air Quality Not available.
Flu Activity Not available.
METAR TJSJ 050656Z 10005KT 9SM -RA FEW025 SCT035 SCT042 26/25 A3004 RMK AO2 RAB41 SLP170 P0011 T02610250

More Conditions Fewer Conditions

10-Day Weather Forecast

×

Almanac

Astronomy

Aug. 05, 2015 Rise Set
Actual Time
Civil Twilight
Nautical Twilight
Astronomical Twilight
Moon
Length of Visible Light
Length of Day
Tomorrow will be .
, % of the Moon is Illuminated

Today's Extremes

State Highs State Lows

Community

WunderPhotos

Upload Photos

1,844,105 photos uploaded!

WunderBlogs® & News

Nearby

Air Quality

  Air Quality AQ Index Pollutant
Not available.

Snow Depth

Station Depth Elevation

Earthquake Activity

City Distance Mag. Time & Date
Minimum magnitude displayed is 2.5.

Coastal Water Temperatures

Place Temperature

Stations

Nearby Weather Stations

Station Location Temp. Windchill Dew Point Humidity Wind Precip. Elev Updated Type